sensor_id;sensor_type;location;lat;lon;timestamp;pressure;altitude;pressure_sealevel;temperature;humidity
74466;BME280;62916;50.044;15.938;2023-04-03T00:01:43;99747.38;;;20.72;52.89
74466;BME280;62916;50.044;15.938;2023-04-03T00:04:14;99745.59;;;20.70;52.90
74466;BME280;62916;50.044;15.938;2023-04-03T00:06:45;99745.16;;;20.69;52.93
74466;BME280;62916;50.044;15.938;2023-04-03T00:09:16;99749.87;;;20.67;52.95
74466;BME280;62916;50.044;15.938;2023-04-03T00:11:47;99746.80;;;20.65;52.93
74466;BME280;62916;50.044;15.938;2023-04-03T00:14:17;99747.19;;;20.62;52.84
74466;BME280;62916;50.044;15.938;2023-04-03T00:16:48;99749.63;;;20.62;53.18
74466;BME280;62916;50.044;15.938;2023-04-03T00:19:19;99749.86;;;20.60;53.24
74466;BME280;62916;50.044;15.938;2023-04-03T00:21:50;99753.55;;;20.59;53.24
74466;BME280;62916;50.044;15.938;2023-04-03T00:24:22;99759.27;;;20.57;53.26
74466;BME280;62916;50.044;15.938;2023-04-03T00:26:53;99759.23;;;20.55;53.18
74466;BME280;62916;50.044;15.938;2023-04-03T00:29:24;99759.38;;;20.54;53.20
74466;BME280;62916;50.044;15.938;2023-04-03T00:31:55;99759.52;;;20.51;53.27
74466;BME280;62916;50.044;15.938;2023-04-03T00:34:26;99761.46;;;20.50;53.40
74466;BME280;62916;50.044;15.938;2023-04-03T00:36:57;99759.12;;;20.48;53.43
74466;BME280;62916;50.044;15.938;2023-04-03T00:39:28;99759.48;;;20.46;53.40
74466;BME280;62916;50.044;15.938;2023-04-03T00:41:59;99761.58;;;20.43;53.34
74466;BME280;62916;50.044;15.938;2023-04-03T00:47:32;99763.34;;;20.37;53.64
74466;BME280;62916;50.044;15.938;2023-04-03T00:50:05;99764.86;;;20.37;53.49
74466;BME280;62916;50.044;15.938;2023-04-03T00:52:35;99762.70;;;20.35;53.63
74466;BME280;62916;50.044;15.938;2023-04-03T00:55:10;99765.41;;;20.33;53.79
74466;BME280;62916;50.044;15.938;2023-04-03T00:57:41;99773.75;;;20.33;53.89
74466;BME280;62916;50.044;15.938;2023-04-03T01:00:16;99772.52;;;20.32;53.80
74466;BME280;62916;50.044;15.938;2023-04-03T01:02:49;99774.01;;;20.30;53.99
74466;BME280;62916;50.044;15.938;2023-04-03T01:05:21;99780.16;;;20.29;53.90
74466;BME280;62916;50.044;15.938;2023-04-03T01:07:52;99780.17;;;20.28;53.93
74466;BME280;62916;50.044;15.938;2023-04-03T01:10:24;99776.57;;;20.27;53.95
74466;BME280;62916;50.044;15.938;2023-04-03T01:12:55;99777.39;;;20.25;54.03
74466;BME280;62916;50.044;15.938;2023-04-03T01:15:27;99777.04;;;20.27;54.08
74466;BME280;62916;50.044;15.938;2023-04-03T01:18:02;99779.66;;;20.25;54.17
74466;BME280;62916;50.044;15.938;2023-04-03T01:21:03;99779.95;;;20.24;54.28
74466;BME280;62916;50.044;15.938;2023-04-03T01:23:44;99785.27;;;20.23;54.25
74466;BME280;62916;50.044;15.938;2023-04-03T01:26:15;99785.27;;;20.22;54.15
74466;BME280;62916;50.044;15.938;2023-04-03T01:28:46;99788.59;;;20.18;54.30
74466;BME280;62916;50.044;15.938;2023-04-03T01:31:22;99790.90;;;20.18;54.13
74466;BME280;62916;50.044;15.938;2023-04-03T01:33:55;99790.57;;;20.17;54.35
74466;BME280;62916;50.044;15.938;2023-04-03T01:36:28;99787.58;;;20.14;54.48
74466;BME280;62916;50.044;15.938;2023-04-03T01:38:59;99797.20;;;20.15;54.48
74466;BME280;62916;50.044;15.938;2023-04-03T01:41:31;99798.75;;;20.13;54.26
74466;BME280;62916;50.044;15.938;2023-04-03T01:44:02;99800.30;;;20.10;54.47
74466;BME280;62916;50.044;15.938;2023-04-03T01:46:33;99804.70;;;20.09;54.54
74466;BME280;62916;50.044;15.938;2023-04-03T01:49:05;99805.67;;;20.07;54.56
74466;BME280;62916;50.044;15.938;2023-04-03T01:51:36;99798.21;;;20.05;54.63
74466;BME280;62916;50.044;15.938;2023-04-03T01:54:07;99804.44;;;20.04;54.60
74466;BME280;62916;50.044;15.938;2023-04-03T01:56:37;99805.20;;;20.02;54.62
74466;BME280;62916;50.044;15.938;2023-04-03T01:59:08;99805.72;;;20.00;54.83
74466;BME280;62916;50.044;15.938;2023-04-03T02:01:39;99803.02;;;19.99;54.66
74466;BME280;62916;50.044;15.938;2023-04-03T02:04:10;99802.15;;;19.97;54.75
74466;BME280;62916;50.044;15.938;2023-04-03T02:06:41;99802.58;;;19.95;54.83
74466;BME280;62916;50.044;15.938;2023-04-03T02:09:12;99805.13;;;19.94;54.73
74466;BME280;62916;50.044;15.938;2023-04-03T02:11:42;99807.11;;;19.93;54.93
74466;BME280;62916;50.044;15.938;2023-04-03T02:14:13;99806.17;;;19.91;54.83
74466;BME280;62916;50.044;15.938;2023-04-03T02:16:44;99805.85;;;19.89;54.83
74466;BME280;62916;50.044;15.938;2023-04-03T02:19:15;99799.39;;;19.88;54.92
74466;BME280;62916;50.044;15.938;2023-04-03T02:21:46;99795.44;;;19.84;54.73
74466;BME280;62916;50.044;15.938;2023-04-03T02:24:16;99802.35;;;19.85;55.07
74466;BME280;62916;50.044;15.938;2023-04-03T02:26:47;99802.33;;;19.83;54.97
74466;BME280;62916;50.044;15.938;2023-04-03T02:29:18;99800.59;;;19.82;55.13
74466;BME280;62916;50.044;15.938;2023-04-03T02:31:49;99802.29;;;19.81;54.80
74466;BME280;62916;50.044;15.938;2023-04-03T02:34:20;99803.36;;;19.81;54.92
74466;BME280;62916;50.044;15.938;2023-04-03T02:36:50;99806.85;;;19.81;55.09
74466;BME280;62916;50.044;15.938;2023-04-03T02:39:21;99805.56;;;19.80;55.04
74466;BME280;62916;50.044;15.938;2023-04-03T02:41:52;99806.88;;;19.79;55.07
74466;BME280;62916;50.044;15.938;2023-04-03T02:44:23;99806.93;;;19.78;55.04
74466;BME280;62916;50.044;15.938;2023-04-03T02:46:53;99805.89;;;19.76;54.93
74466;BME280;62916;50.044;15.938;2023-04-03T02:49:24;99799.58;;;19.76;55.04
74466;BME280;62916;50.044;15.938;2023-04-03T02:51:55;99798.02;;;19.75;55.14
74466;BME280;62916;50.044;15.938;2023-04-03T02:54:26;99795.63;;;19.73;55.01
74466;BME280;62916;50.044;15.938;2023-04-03T02:57:00;99799.52;;;19.72;55.15
74466;BME280;62916;50.044;15.938;2023-04-03T02:59:31;99801.39;;;19.71;55.04
74466;BME280;62916;50.044;15.938;2023-04-03T03:02:01;99803.48;;;19.70;55.11
74466;BME280;62916;50.044;15.938;2023-04-03T03:04:32;99807.66;;;19.69;55.11
74466;BME280;62916;50.044;15.938;2023-04-03T03:07:03;99811.55;;;19.69;55.14
74466;BME280;62916;50.044;15.938;2023-04-03T03:09:34;99808.91;;;19.67;55.20
74466;BME280;62916;50.044;15.938;2023-04-03T03:12:06;99812.91;;;19.67;55.17
74466;BME280;62916;50.044;15.938;2023-04-03T03:14:37;99815.06;;;19.66;55.20
74466;BME280;62916;50.044;15.938;2023-04-03T03:17:08;99817.48;;;19.66;55.16
74466;BME280;62916;50.044;15.938;2023-04-03T03:19:38;99819.07;;;19.65;55.16
74466;BME280;62916;50.044;15.938;2023-04-03T03:22:09;99820.69;;;19.62;55.08
74466;BME280;62916;50.044;15.938;2023-04-03T03:24:40;99826.04;;;19.62;55.26
74466;BME280;62916;50.044;15.938;2023-04-03T03:27:11;99827.29;;;19.60;55.24
74466;BME280;62916;50.044;15.938;2023-04-03T03:29:43;99831.46;;;19.59;55.21
74466;BME280;62916;50.044;15.938;2023-04-03T03:32:13;99832.48;;;19.57;55.39
74466;BME280;62916;50.044;15.938;2023-04-03T03:34:45;99832.88;;;19.57;55.32
74466;BME280;62916;50.044;15.938;2023-04-03T03:37:15;99835.61;;;19.55;55.24
74466;BME280;62916;50.044;15.938;2023-04-03T03:39:46;99837.62;;;19.55;55.45
74466;BME280;62916;50.044;15.938;2023-04-03T03:42:17;99844.20;;;19.56;55.51
74466;BME280;62916;50.044;15.938;2023-04-03T03:44:48;99843.18;;;19.57;55.44
74466;BME280;62916;50.044;15.938;2023-04-03T03:47:18;99844.87;;;19.57;55.71
74466;BME280;62916;50.044;15.938;2023-04-03T03:49:49;99845.84;;;19.56;55.65
74466;BME280;62916;50.044;15.938;2023-04-03T03:52:20;99851.41;;;19.55;55.60
74466;BME280;62916;50.044;15.938;2023-04-03T03:54:50;99851.39;;;19.53;55.59
74466;BME280;62916;50.044;15.938;2023-04-03T03:57:21;99851.57;;;19.52;55.55
74466;BME280;62916;50.044;15.938;2023-04-03T03:59:52;99848.37;;;19.52;55.48
74466;BME280;62916;50.044;15.938;2023-04-03T04:02:23;99852.27;;;19.51;55.58
74466;BME280;62916;50.044;15.938;2023-04-03T04:04:54;99852.04;;;19.49;55.57
74466;BME280;62916;50.044;15.938;2023-04-03T04:07:25;99853.90;;;19.49;55.36
74466;BME280;62916;50.044;15.938;2023-04-03T04:09:57;99852.04;;;19.49;55.56
74466;BME280;62916;50.044;15.938;2023-04-03T04:12:28;99858.73;;;19.50;55.61
74466;BME280;62916;50.044;15.938;2023-04-03T04:14:59;99863.11;;;19.51;55.48
74466;BME280;62916;50.044;15.938;2023-04-03T04:17:30;99862.04;;;19.51;55.65
74466;BME280;62916;50.044;15.938;2023-04-03T04:20:01;99861.09;;;19.52;55.76
74466;BME280;62916;50.044;15.938;2023-04-03T04:22:32;99863.85;;;19.51;55.95
74466;BME280;62916;50.044;15.938;2023-04-03T04:25:03;99868.86;;;19.50;55.98
74466;BME280;62916;50.044;15.938;2023-04-03T04:27:35;99870.22;;;19.50;56.10
74466;BME280;62916;50.044;15.938;2023-04-03T04:30:08;99872.70;;;19.50;56.28
74466;BME280;62916;50.044;15.938;2023-04-03T04:32:39;99876.29;;;19.51;56.28
74466;BME280;62916;50.044;15.938;2023-04-03T04:35:10;99873.64;;;19.51;56.40
74466;BME280;62916;50.044;15.938;2023-04-03T04:37:45;99878.99;;;19.50;56.33
74466;BME280;62916;50.044;15.938;2023-04-03T04:40:16;99878.88;;;19.49;56.20
74466;BME280;62916;50.044;15.938;2023-04-03T04:42:47;99884.55;;;19.46;56.17
74466;BME280;62916;50.044;15.938;2023-04-03T04:45:18;99885.08;;;19.44;55.96
74466;BME280;62916;50.044;15.938;2023-04-03T04:47:49;99885.00;;;19.42;55.99
74466;BME280;62916;50.044;15.938;2023-04-03T04:50:21;99886.08;;;19.40;56.05
74466;BME280;62916;50.044;15.938;2023-04-03T04:52:52;99892.38;;;19.39;56.04
74466;BME280;62916;50.044;15.938;2023-04-03T04:55:23;99892.79;;;19.37;56.10
74466;BME280;62916;50.044;15.938;2023-04-03T04:57:54;99895.66;;;19.36;56.01
74466;BME280;62916;50.044;15.938;2023-04-03T05:00:24;99898.77;;;19.35;55.89
74466;BME280;62916;50.044;15.938;2023-04-03T05:02:56;99894.86;;;19.33;55.85
74466;BME280;62916;50.044;15.938;2023-04-03T05:05:26;99896.73;;;19.31;55.80
74466;BME280;62916;50.044;15.938;2023-04-03T05:07:58;99898.42;;;19.29;55.80
74466;BME280;62916;50.044;15.938;2023-04-03T05:10:29;99899.01;;;19.27;55.75
74466;BME280;62916;50.044;15.938;2023-04-03T05:13:00;99897.89;;;19.25;55.74
74466;BME280;62916;50.044;15.938;2023-04-03T05:15:31;99903.77;;;19.23;55.68
74466;BME280;62916;50.044;15.938;2023-04-03T05:18:01;99907.33;;;19.22;55.61
74466;BME280;62916;50.044;15.938;2023-04-03T05:20:33;99910.77;;;19.20;55.71
74466;BME280;62916;50.044;15.938;2023-04-03T05:23:04;99913.08;;;19.18;55.67
74466;BME280;62916;50.044;15.938;2023-04-03T05:25:34;99914.77;;;19.16;55.70
74466;BME280;62916;50.044;15.938;2023-04-03T05:28:07;99917.12;;;19.14;55.58
74466;BME280;62916;50.044;15.938;2023-04-03T05:30:39;99918.59;;;19.12;55.63
74466;BME280;62916;50.044;15.938;2023-04-03T05:33:10;99922.20;;;19.10;55.53
74466;BME280;62916;50.044;15.938;2023-04-03T05:35:41;99925.69;;;19.09;55.63
74466;BME280;62916;50.044;15.938;2023-04-03T05:38:13;99925.08;;;19.06;55.47
74466;BME280;62916;50.044;15.938;2023-04-03T05:40:44;99933.34;;;19.06;55.39
74466;BME280;62916;50.044;15.938;2023-04-03T05:43:16;99935.95;;;19.04;55.39
74466;BME280;62916;50.044;15.938;2023-04-03T05:45:48;99937.27;;;19.01;55.42
74466;BME280;62916;50.044;15.938;2023-04-03T05:48:19;99939.58;;;19.01;55.49
74466;BME280;62916;50.044;15.938;2023-04-03T05:50:50;99945.15;;;18.99;55.37
74466;BME280;62916;50.044;15.938;2023-04-03T05:53:27;99948.87;;;18.97;55.41
74466;BME280;62916;50.044;15.938;2023-04-03T05:55:59;99949.71;;;18.96;55.35
74466;BME280;62916;50.044;15.938;2023-04-03T05:58:30;99953.03;;;18.95;55.45
74466;BME280;62916;50.044;15.938;2023-04-03T06:01:01;99953.26;;;18.94;55.38
74466;BME280;62916;50.044;15.938;2023-04-03T06:03:32;99958.23;;;18.93;55.38
74466;BME280;62916;50.044;15.938;2023-04-03T06:06:06;99962.61;;;18.92;55.31
74466;BME280;62916;50.044;15.938;2023-04-03T06:08:37;99964.98;;;18.91;55.36
74466;BME280;62916;50.044;15.938;2023-04-03T06:11:09;99965.95;;;18.90;55.38
74466;BME280;62916;50.044;15.938;2023-04-03T06:13:40;99976.41;;;18.88;55.45
74466;BME280;62916;50.044;15.938;2023-04-03T06:16:13;99974.56;;;18.87;55.24
74466;BME280;62916;50.044;15.938;2023-04-03T06:18:44;99973.10;;;18.85;55.33
74466;BME280;62916;50.044;15.938;2023-04-03T06:21:15;99979.62;;;18.86;55.34
74466;BME280;62916;50.044;15.938;2023-04-03T06:23:46;99980.85;;;18.86;55.46
74466;BME280;62916;50.044;15.938;2023-04-03T06:26:17;99982.65;;;18.87;55.34
74466;BME280;62916;50.044;15.938;2023-04-03T06:28:48;99981.58;;;18.89;55.26
74466;BME280;62916;50.044;15.938;2023-04-03T06:31:18;99987.70;;;18.90;55.10
74466;BME280;62916;50.044;15.938;2023-04-03T06:33:49;99984.45;;;18.92;55.17
74466;BME280;62916;50.044;15.938;2023-04-03T06:36:21;99988.05;;;18.93;55.07
74466;BME280;62916;50.044;15.938;2023-04-03T06:38:51;99993.30;;;18.96;55.08
74466;BME280;62916;50.044;15.938;2023-04-03T06:41:22;99990.70;;;18.97;55.12
74466;BME280;62916;50.044;15.938;2023-04-03T06:43:53;99995.98;;;19.00;55.08
74466;BME280;62916;50.044;15.938;2023-04-03T06:46:26;100000.86;;;19.03;54.92
74466;BME280;62916;50.044;15.938;2023-04-03T06:48:59;100003.69;;;19.06;55.15
74466;BME280;62916;50.044;15.938;2023-04-03T06:51:31;100007.18;;;19.08;55.02
74466;BME280;62916;50.044;15.938;2023-04-03T06:54:02;100010.77;;;19.11;55.00
74466;BME280;62916;50.044;15.938;2023-04-03T06:56:34;100010.58;;;19.13;54.90
74466;BME280;62916;50.044;15.938;2023-04-03T06:59:05;100009.67;;;19.14;54.82
74466;BME280;62916;50.044;15.938;2023-04-03T07:01:36;100016.06;;;19.18;54.96
74466;BME280;62916;50.044;15.938;2023-04-03T07:04:07;100016.89;;;19.20;54.76
74466;BME280;62916;50.044;15.938;2023-04-03T07:06:38;100019.64;;;19.23;54.85
74466;BME280;62916;50.044;15.938;2023-04-03T07:09:09;100021.70;;;19.25;54.61
74466;BME280;62916;50.044;15.938;2023-04-03T07:11:40;100016.30;;;19.25;54.63
74466;BME280;62916;50.044;15.938;2023-04-03T07:14:11;100020.62;;;19.27;54.74
74466;BME280;62916;50.044;15.938;2023-04-03T07:16:42;100023.02;;;19.28;54.75
74466;BME280;62916;50.044;15.938;2023-04-03T07:19:13;100025.06;;;19.29;54.58
74466;BME280;62916;50.044;15.938;2023-04-03T07:21:44;100029.50;;;19.30;54.65
74466;BME280;62916;50.044;15.938;2023-04-03T07:24:15;100021.90;;;19.30;54.68
74466;BME280;62916;50.044;15.938;2023-04-03T07:26:48;100027.81;;;19.31;54.62
74466;BME280;62916;50.044;15.938;2023-04-03T07:29:19;100026.80;;;19.31;54.50
74466;BME280;62916;50.044;15.938;2023-04-03T07:31:50;100028.54;;;19.31;54.49
74466;BME280;62916;50.044;15.938;2023-04-03T07:34:22;100028.48;;;19.31;54.44
74466;BME280;62916;50.044;15.938;2023-04-03T07:36:53;100031.80;;;19.31;54.52
74466;BME280;62916;50.044;15.938;2023-04-03T07:39:24;100033.83;;;19.32;54.38
74466;BME280;62916;50.044;15.938;2023-04-03T07:41:56;100034.55;;;19.32;54.50
74466;BME280;62916;50.044;15.938;2023-04-03T07:44:26;100036.41;;;19.32;54.34
74466;BME280;62916;50.044;15.938;2023-04-03T07:46:57;100042.14;;;19.32;54.59
74466;BME280;62916;50.044;15.938;2023-04-03T07:49:29;100041.36;;;19.32;54.45
74466;BME280;62916;50.044;15.938;2023-04-03T07:52:02;100042.80;;;19.33;54.48
74466;BME280;62916;50.044;15.938;2023-04-03T07:54:33;100040.35;;;19.32;54.39
74466;BME280;62916;50.044;15.938;2023-04-03T07:57:04;100044.69;;;19.32;54.39
74466;BME280;62916;50.044;15.938;2023-04-03T07:59:36;100044.45;;;19.31;54.42
74466;BME280;62916;50.044;15.938;2023-04-03T08:02:07;100045.46;;;19.31;54.39
74466;BME280;62916;50.044;15.938;2023-04-03T08:04:38;100047.10;;;19.30;54.36
74466;BME280;62916;50.044;15.938;2023-04-03T08:07:09;100049.13;;;19.29;54.27
74466;BME280;62916;50.044;15.938;2023-04-03T08:09:40;100050.59;;;19.28;54.28
74466;BME280;62916;50.044;15.938;2023-04-03T08:12:11;100051.89;;;19.27;54.35
74466;BME280;62916;50.044;15.938;2023-04-03T08:14:41;100050.38;;;19.26;54.23
74466;BME280;62916;50.044;15.938;2023-04-03T08:17:12;100051.95;;;19.26;54.30
74466;BME280;62916;50.044;15.938;2023-04-03T08:19:43;100052.07;;;19.26;54.20
74466;BME280;62916;50.044;15.938;2023-04-03T08:22:14;100051.13;;;19.24;54.37
74466;BME280;62916;50.044;15.938;2023-04-03T08:24:45;100048.11;;;19.22;54.22
74466;BME280;62916;50.044;15.938;2023-04-03T08:27:27;100049.06;;;19.22;54.44
74466;BME280;62916;50.044;15.938;2023-04-03T08:29:58;100049.23;;;19.21;54.43
74466;BME280;62916;50.044;15.938;2023-04-03T08:32:29;100049.29;;;19.21;54.40
74466;BME280;62916;50.044;15.938;2023-04-03T08:35:00;100048.45;;;19.20;54.46
74466;BME280;62916;50.044;15.938;2023-04-03T08:37:30;100051.93;;;19.20;54.36
74466;BME280;62916;50.044;15.938;2023-04-03T08:40:01;100055.76;;;19.20;54.45
74466;BME280;62916;50.044;15.938;2023-04-03T08:42:41;100058.41;;;19.20;54.36
74466;BME280;62916;50.044;15.938;2023-04-03T08:45:18;100055.60;;;19.19;54.33
74466;BME280;62916;50.044;15.938;2023-04-03T08:47:58;100057.30;;;19.18;54.32
74466;BME280;62916;50.044;15.938;2023-04-03T08:50:36;100056.23;;;19.18;54.15
74466;BME280;62916;50.044;15.938;2023-04-03T08:53:13;100052.79;;;19.17;54.16
74466;BME280;62916;50.044;15.938;2023-04-03T08:55:46;100057.85;;;19.17;54.29
74466;BME280;62916;50.044;15.938;2023-04-03T08:58:21;100060.38;;;19.17;54.37
74466;BME280;62916;50.044;15.938;2023-04-03T09:00:55;100061.23;;;19.16;54.32
74466;BME280;62916;50.044;15.938;2023-04-03T09:03:30;100057.53;;;19.15;54.12
74466;BME280;62916;50.044;15.938;2023-04-03T09:06:06;100054.71;;;19.14;54.20
74466;BME280;62916;50.044;15.938;2023-04-03T09:08:43;100057.61;;;19.12;54.17
74466;BME280;62916;50.044;15.938;2023-04-03T09:11:23;100058.57;;;19.11;54.05
74466;BME280;62916;50.044;15.938;2023-04-03T09:14:01;100056.72;;;19.10;54.18
74466;BME280;62916;50.044;15.938;2023-04-03T09:16:39;100060.31;;;19.09;54.21
74466;BME280;62916;50.044;15.938;2023-04-03T09:19:18;100066.05;;;19.08;54.13
74466;BME280;62916;50.044;15.938;2023-04-03T09:21:51;100065.99;;;19.08;54.16
74466;BME280;62916;50.044;15.938;2023-04-03T09:24:24;100064.98;;;19.08;54.21
74466;BME280;62916;50.044;15.938;2023-04-03T09:26:58;100062.52;;;19.07;54.13
74466;BME280;62916;50.044;15.938;2023-04-03T09:29:30;100065.05;;;19.06;54.11
74466;BME280;62916;50.044;15.938;2023-04-03T09:32:02;100067.07;;;19.07;54.18
74466;BME280;62916;50.044;15.938;2023-04-03T09:34:42;100065.16;;;19.06;54.05
74466;BME280;62916;50.044;15.938;2023-04-03T09:37:35;100061.90;;;19.04;54.00
74466;BME280;62916;50.044;15.938;2023-04-03T09:40:30;100068.04;;;19.04;54.08
74466;BME280;62916;50.044;15.938;2023-04-03T09:43:21;100070.36;;;19.01;54.09
74466;BME280;62916;50.044;15.938;2023-04-03T09:45:52;100067.21;;;19.01;54.02
74466;BME280;62916;50.044;15.938;2023-04-03T09:48:25;100072.95;;;18.99;54.09
74466;BME280;62916;50.044;15.938;2023-04-03T09:51:00;100078.46;;;18.98;54.06
74466;BME280;62916;50.044;15.938;2023-04-03T09:53:35;100076.89;;;18.94;54.04
74466;BME280;62916;50.044;15.938;2023-04-03T09:56:05;100077.17;;;18.96;54.07
74466;BME280;62916;50.044;15.938;2023-04-03T09:58:50;100071.48;;;18.94;54.17
74466;BME280;62916;50.044;15.938;2023-04-03T10:01:30;100079.64;;;18.94;54.30
74466;BME280;62916;50.044;15.938;2023-04-03T10:04:07;100083.48;;;18.93;54.01
74466;BME280;62916;50.044;15.938;2023-04-03T10:06:41;100076.91;;;18.92;54.02
74466;BME280;62916;50.044;15.938;2023-04-03T10:09:20;100075.28;;;18.92;54.08
74466;BME280;62916;50.044;15.938;2023-04-03T10:12:06;100082.88;;;18.92;54.12
74466;BME280;62916;50.044;15.938;2023-04-03T10:14:40;100079.05;;;18.91;54.21
74466;BME280;62916;50.044;15.938;2023-04-03T10:17:30;100069.17;;;18.90;54.20
74466;BME280;62916;50.044;15.938;2023-04-03T10:20:09;100072.54;;;18.89;54.07
74466;BME280;62916;50.044;15.938;2023-04-03T10:22:53;100070.73;;;18.88;54.16
74466;BME280;62916;50.044;15.938;2023-04-03T10:25:31;100071.36;;;18.88;54.13
74466;BME280;62916;50.044;15.938;2023-04-03T10:28:08;100073.27;;;18.88;54.09
74466;BME280;62916;50.044;15.938;2023-04-03T10:30:49;100070.73;;;18.87;54.05
74466;BME280;62916;50.044;15.938;2023-04-03T10:33:36;100068.05;;;18.86;54.12
74466;BME280;62916;50.044;15.938;2023-04-03T10:36:17;100065.46;;;18.85;54.10
74466;BME280;62916;50.044;15.938;2023-04-03T10:38:51;100064.73;;;18.85;54.05
74466;BME280;62916;50.044;15.938;2023-04-03T10:41:36;100065.06;;;18.84;54.10
74466;BME280;62916;50.044;15.938;2023-04-03T10:44:18;100062.88;;;18.85;54.03
74466;BME280;62916;50.044;15.938;2023-04-03T10:46:55;100063.33;;;18.86;54.09
74466;BME280;62916;50.044;15.938;2023-04-03T10:49:37;100059.05;;;18.87;54.02
74466;BME280;62916;50.044;15.938;2023-04-03T10:52:33;100059.44;;;18.86;54.06
74466;BME280;62916;50.044;15.938;2023-04-03T10:55:21;100057.81;;;18.85;54.06
74466;BME280;62916;50.044;15.938;2023-04-03T10:57:57;100057.60;;;18.84;54.05
74466;BME280;62916;50.044;15.938;2023-04-03T11:00:33;100056.43;;;18.83;54.04
74466;BME280;62916;50.044;15.938;2023-04-03T11:03:09;100053.30;;;18.81;54.04
74466;BME280;62916;50.044;15.938;2023-04-03T11:05:45;100055.72;;;18.81;54.00
74466;BME280;62916;50.044;15.938;2023-04-03T11:08:27;100053.30;;;18.80;53.98
74466;BME280;62916;50.044;15.938;2023-04-03T11:11:02;100051.73;;;18.80;53.95
74466;BME280;62916;50.044;15.938;2023-04-03T11:13:39;100047.23;;;18.81;53.85
74466;BME280;62916;50.044;15.938;2023-04-03T11:16:16;100049.48;;;18.82;54.00
74466;BME280;62916;50.044;15.938;2023-04-03T11:18:51;100052.50;;;18.83;53.94
74466;BME280;62916;50.044;15.938;2023-04-03T11:21:27;100048.91;;;18.82;53.95
74466;BME280;62916;50.044;15.938;2023-04-03T11:24:05;100050.73;;;18.85;54.01
74466;BME280;62916;50.044;15.938;2023-04-03T11:26:40;100047.92;;;18.88;53.99
74466;BME280;62916;50.044;15.938;2023-04-03T11:29:17;100046.68;;;18.92;53.89
74466;BME280;62916;50.044;15.938;2023-04-03T11:32:11;100043.66;;;18.96;53.88
74466;BME280;62916;50.044;15.938;2023-04-03T11:34:48;100047.20;;;19.00;53.82
74466;BME280;62916;50.044;15.938;2023-04-03T11:37:25;100044.58;;;19.03;53.75
74466;BME280;62916;50.044;15.938;2023-04-03T11:40:00;100042.55;;;19.08;53.82
74466;BME280;62916;50.044;15.938;2023-04-03T11:42:36;100038.83;;;19.12;53.80
74466;BME280;62916;50.044;15.938;2023-04-03T11:45:27;100042.61;;;19.16;53.66
74466;BME280;62916;50.044;15.938;2023-04-03T11:48:01;100036.19;;;19.19;53.72
74466;BME280;62916;50.044;15.938;2023-04-03T11:50:49;100035.60;;;19.24;53.64
74466;BME280;62916;50.044;15.938;2023-04-03T11:53:38;100030.91;;;19.27;53.72
74466;BME280;62916;50.044;15.938;2023-04-03T11:56:31;100029.38;;;19.29;53.61
74466;BME280;62916;50.044;15.938;2023-04-03T11:59:23;100028.42;;;19.31;53.50
74466;BME280;62916;50.044;15.938;2023-04-03T12:01:56;100023.19;;;19.31;53.57
74466;BME280;62916;50.044;15.938;2023-04-03T12:04:28;100026.08;;;19.36;53.53
74466;BME280;62916;50.044;15.938;2023-04-03T12:07:13;100024.66;;;19.37;53.53
74466;BME280;62916;50.044;15.938;2023-04-03T12:10:18;100024.44;;;19.38;53.46
74466;BME280;62916;50.044;15.938;2023-04-03T12:13:12;100019.52;;;19.39;53.49
74466;BME280;62916;50.044;15.938;2023-04-03T12:15:56;100023.41;;;19.39;53.47
74466;BME280;62916;50.044;15.938;2023-04-03T12:19:02;100022.64;;;19.40;53.48
74466;BME280;62916;50.044;15.938;2023-04-03T12:22:05;100018.02;;;19.41;53.51
74466;BME280;62916;50.044;15.938;2023-04-03T12:24:37;100021.83;;;19.41;53.45
74466;BME280;62916;50.044;15.938;2023-04-03T12:27:23;100022.95;;;19.42;53.49
74466;BME280;62916;50.044;15.938;2023-04-03T12:30:04;100018.17;;;19.42;53.50
74466;BME280;62916;50.044;15.938;2023-04-03T12:32:49;100014.16;;;19.43;53.37
74466;BME280;62916;50.044;15.938;2023-04-03T12:35:47;100015.92;;;19.43;53.40
74466;BME280;62916;50.044;15.938;2023-04-03T12:38:30;100015.91;;;19.43;53.28
74466;BME280;62916;50.044;15.938;2023-04-03T12:41:19;100020.08;;;19.42;53.38
74466;BME280;62916;50.044;15.938;2023-04-03T12:44:21;100021.48;;;19.43;53.39
74466;BME280;62916;50.044;15.938;2023-04-03T12:47:16;100026.52;;;19.44;53.35
74466;BME280;62916;50.044;15.938;2023-04-03T12:49:50;100026.92;;;19.44;53.38
74466;BME280;62916;50.044;15.938;2023-04-03T12:52:30;100026.31;;;19.43;53.32
74466;BME280;62916;50.044;15.938;2023-04-03T12:55:03;100026.21;;;19.42;53.33
74466;BME280;62916;50.044;15.938;2023-04-03T12:57:39;100025.14;;;19.43;53.25
74466;BME280;62916;50.044;15.938;2023-04-03T13:00:30;100023.07;;;19.42;53.20
74466;BME280;62916;50.044;15.938;2023-04-03T13:03:05;100022.30;;;19.40;53.20
74466;BME280;62916;50.044;15.938;2023-04-03T13:05:37;100025.67;;;19.39;53.35
74466;BME280;62916;50.044;15.938;2023-04-03T13:08:13;100026.68;;;19.38;53.13
74466;BME280;62916;50.044;15.938;2023-04-03T13:10:51;100022.24;;;19.36;53.13
74466;BME280;62916;50.044;15.938;2023-04-03T13:13:23;100016.74;;;19.35;53.18
74466;BME280;62916;50.044;15.938;2023-04-03T13:15:55;100025.97;;;19.34;53.25
74466;BME280;62916;50.044;15.938;2023-04-03T13:18:29;100020.08;;;19.33;53.32
74466;BME280;62916;50.044;15.938;2023-04-03T13:21:04;100019.70;;;19.32;53.26
74466;BME280;62916;50.044;15.938;2023-04-03T13:23:40;100020.77;;;19.31;53.42
74466;BME280;62916;50.044;15.938;2023-04-03T13:26:14;100022.70;;;19.30;53.24